KA4YMY Weather Reports


Display with metric or nautical units.
time (UTC)temp
F
wind
direction
speed
MPH
gust
MPH
rain 1hr
in
rain 24hr
in
rain mn
in
humidity
%
barometer
mb
20221005130016 59 23 1.0 2.0 0.00 0.00 0.00 63 1017.1
20221005125016 57 23 1.0 3.0 0.00 0.00 0.00 68 1017.2
20221005124016 55 0.0 2.0 0.00 0.00 0.00 72 1017.1
20221005123016 53 0.0 1.0 0.00 0.00 0.00 79 1016.8
20221005122016 50 0.0 1.0 0.00 0.00 0.00 85 1016.7
20221005121017 47 0.0 1.0 0.00 0.00 0.00 89 1016.6
20221005120016 45 0.0 0.0 0.00 0.00 0.00 91 1016.5
20221005115018 45 0.0 0.0 0.00 0.00 0.00 91 1016.3
20221005114018 44 0.0 0.0 0.00 0.00 0.00 90 1016.2
20221005113038 45 0.0 0.0 0.00 0.00 0.00 91 1016.2
20221005112018 45 0.0 0.0 0.00 0.00 0.00 91 1016.2
20221005111035 45 0.0 0.0 0.00 0.00 0.00 91 1016.2
20221005110018 45 0.0 0.0 0.00 0.00 0.00 90 1016.2
20221005105018 45 0.0 0.0 0.00 0.00 0.00 90 1016.1
20221005104018 45 0.0 0.0 0.00 0.00 0.00 90 1016.1
20221005103018 45 0.0 0.0 0.00 0.00 0.00 90 1016.1
20221005102018 45 0.0 0.0 0.00 0.00 0.00 90 1016.3
20221005101018 45 0.0 0.0 0.00 0.00 0.00 90 1016.1
20221004201206 73 23 2.0 5.0 0.00 0.00 0.00 38 1015.5
20221004194017 73 45 3.0 9.0 0.00 0.00 0.00 42 1015.8
20221004193018 73 23 3.0 7.0 0.00 0.00 0.00 43 1015.8
20221004192017 73 23 3.0 10.0 0.00 0.00 0.00 43 1015.9
20221004191017 73 23 2.0 5.0 0.00 0.00 0.00 44 1015.9
20221004190018 73 45 2.0 5.0 0.00 0.00 0.00 48 1016.2
20221004185016 73 45 3.0 7.0 0.00 0.00 0.00 44 1016.4
20221004184017 74 23 1.0 5.0 0.00 0.00 0.00 44 1016.6
20221004183016 74 23 2.0 5.0 0.00 0.00 0.00 46 1016.7
20221004182016 74 23 2.0 5.0 0.00 0.00 0.00 45 1016.8
20221004181016 74 45 2.0 4.0 0.00 0.00 0.00 46 1016.9
20221004180016 74 158 2.0 6.0 0.00 0.00 0.00 49 1017.0
20221004175017 73 23 3.0 9.0 0.00 0.00 0.00 46 1017.2
20221004174017 73 113 1.0 3.0 0.00 0.00 0.00 48 1017.3
20221004173016 73 23 2.0 5.0 0.00 0.00 0.00 49 1017.4
20221004162017 71 45 2.0 5.0 0.00 0.00 0.00 51 1018.4
20221004161016 71 23 2.0 8.0 0.00 0.00 0.00 55 1018.6
20221004160016 70 45 2.0 5.0 0.00 0.00 0.00 52 1018.7
20221004155016 70 68 2.0 4.0 0.00 0.00 0.00 53 1018.8
20221004154016 70 45 2.0 5.0 0.00 0.00 0.00 53 1019.0
20221004153016 69 23 2.0 4.0 0.00 0.00 0.00 53 1019.1
20221004152016 69 113 1.0 3.0 0.00 0.00 0.00 56 1019.4
20221004151016 69 68 1.0 3.0 0.00 0.00 0.00 53 1019.5
20221004150016 68 45 2.0 3.0 0.00 0.00 0.00 57 1019.4
20221004145016 68 68 1.0 4.0 0.00 0.00 0.00 62 1019.5
20221004144016 67 90 2.0 4.0 0.00 0.00 0.00 62 1019.6
20221004143016 66 113 1.0 3.0 0.00 0.00 0.00 64 1019.6
20221004142016 66 158 2.0 5.0 0.00 0.00 0.00 65 1019.5
20221004141016 66 68 1.0 2.0 0.00 0.00 0.00 68 1019.6
20221004140016 64 113 1.0 3.0 0.00 0.00 0.00 70 1019.6
20221004135018 64 23 1.0 3.0 0.00 0.00 0.00 72 1019.8
20221004134019 62 23 1.0 2.0 0.00 0.00 0.00 74 1019.7
20221004133018 60 0.0 2.0 0.00 0.00 0.00 78 1019.6
20221004132018 59 0 1.0 2.0 0.00 0.00 0.00 78 1019.5
20221004131018 57 338 1.0 2.0 0.00 0.00 0.00 81 1019.6